LiveATC.Net - Listen to live air traffic control over the Internet! Contact LiveATC.net for advertising information


ICAO: ESOE  IATA: ORB   Airport: Orebro Airport
City: Orebro
Country: Sweden   Continent: Europe
ESOE METAR Weather: ESOE 220350Z 36020G32KT 5000 +RA FEW015 BKN018 09/08 Q1003
ESOE Flight Activity (FlightAware)
ESOE Twr/App
Feed Status: DOWN
Last heard on: 2014-09-10 13:30:03 (11 days 14 hours 40 minutes ago)
ESOE Twr/App Audio Archives
FacilityFrequency
Orebro Tower120.275
Sweden Control (aircraft only)131.125


NOTICE

Unauthorized use prohibited. See LiveATC.net Terms of Service


Find LiveATC Audio Streams


Airport/ARTCC Code

Frequency
(e.g., 124.400, 128.75)
Site-wide search

Browse LiveATC Feeds
LiveATC Coverage Map
Top 50 LiveATC Feeds
Bad Weather Areas

LiveATC FAQ
Offer a LiveATC Feed
Contact LiveATC.net
Press Inquiries

LiveATC on iPhone
LiveATC on Android

LiveATC Mobile
(Mobile browser)

ATC Audio Archives
Interesting Recordings

LiveATC Forums


Home Page
About LiveATC.net
Make a Donation
LiveATC Bookstore

Terms of Use
Privacy Policy

ATC/Radar Sites
U.S. ARTCC Freqs
Canadian Air Freqs

AIRMETs/SIGMETs

FAA Airport Status
Nat'l Airspace Status
Arrival Demand Charts


Server Software By:
Icecast.org
Liquidsoap

Please make a donation to help us keep growing!